Time;durP1;ratioP1;P1;durP2;ratioP2;P2;SDS_P1;SDS_P2;PMS_P1;PMS_P2;Temp;Humidity;BMP_temperature;BMP_pressure;BME280_temperature;BME280_humidity;BME280_pressure;Samples;Min_cycle;Max_cycle;Signal;HPM_P1;HPM_P2
2023/06/24 00:01:18;;;;;;;;;;;;;;;;;;5007704;28;19971;-66
2023/06/24 00:03:46;;;;;;;;;;;;;;;;;;5009512;28;19914;-67
2023/06/24 00:06:18;;;;;;;;;;;;;;;;;;5013950;28;20008;-66
2023/06/24 00:08:44;;;;;;;;;;;;;;;;;;5013827;28;19914;-66
2023/06/24 00:11:10;;;;;;;;;;;;;;;;;;5011754;28;20019;-66
2023/06/24 00:13:37;;;;;;;;;;;;;;;;;;5011723;28;19957;-66
2023/06/24 00:16:03;;;;;;;;;;;;;;;;;;5012336;28;20408;-66
2023/06/24 00:18:29;;;;;;;;;;;;;;;;;;5011115;28;19956;-66
2023/06/24 00:20:55;;;;;;;;;;;;;;;;;;5013417;28;20008;-66
2023/06/24 00:23:24;;;;;;;;;;;;;;;;;;5009804;28;20453;-66
2023/06/24 00:25:50;;;;;;;;;;;;;;;;;;5013644;28;19916;-67
2023/06/24 00:28:16;;;;;;;;;;;;;;;;;;5012834;28;19913;-67
2023/06/24 00:30:42;;;;;;;;;;;;;;;;;;5011782;28;19957;-66
2023/06/24 00:33:10;;;;;;;;;;;;;;;;;;5013559;28;19913;-66
2023/06/24 00:35:37;;;;;;;;;;;;;;;;;;5009917;28;19913;-66
2023/06/24 00:38:03;;;;;;;;;;;;;;;;;;5013231;28;19956;-67
2023/06/24 00:40:29;;;;;;;;;;;;;;;;;;5011352;28;19961;-67
2023/06/24 00:42:55;;;;;;;;;;;;;;;;;;5011474;28;20004;-66
2023/06/24 00:45:21;;;;;;;;;;;;;;;;;;5009988;28;19971;-67
2023/06/24 00:47:46;;;;;;;;;;;;;;;;;;5013322;28;19921;-66
2023/06/24 00:50:12;;;;;;;;;;;;;;;;;;5012751;28;20013;-67
2023/06/24 00:52:42;;;;;;;;;;;;;;;;;;5011568;28;20381;-67
2023/06/24 00:55:08;;;;;;;;;;;;;;;;;;5012564;28;19984;-67
2023/06/24 00:57:34;;;;;;;;;;;;;;;;;;5011340;28;19999;-67
2023/06/24 00:59:59;;;;;;;;;;;;;;;;;;5011697;28;19917;-67
2023/06/24 01:02:27;;;;;;;;;;;;;;;;;;5011602;28;19914;-64
2023/06/24 01:04:53;;;;;;;;;;;;;;;;;;5011910;28;19917;-65
2023/06/24 01:07:19;;;;;;;;;;;;;;;;;;5010692;28;19967;-64
2023/06/24 01:09:45;;;;;;;;;;;;;;;;;;5009211;28;20448;-64
2023/06/24 01:12:11;;;;;;;;;;;;;;;;;;5012654;28;20401;-64
2023/06/24 01:14:37;;;;;;;;;;;;;;;;;;5008566;28;19960;-64
2023/06/24 01:17:03;;;;;;;;;;;;;;;;;;5011867;28;19921;-64
2023/06/24 01:19:29;;;;;;;;;;;;;;;;;;5012728;28;19949;-65
2023/06/24 01:21:55;;;;;;;;;;;;;;;;;;5012270;28;19914;-64
2023/06/24 01:24:20;;;;;;;;;;;;;;;;;;5011548;28;19945;-65
2023/06/24 01:26:46;;;;;;;;;;;;;;;;;;5010928;28;19920;-64
2023/06/24 01:29:12;;;;;;;;;;;;;;;;;;5010489;28;20008;-64
2023/06/24 01:31:38;;;;;;;;;;;;;;;;;;5003825;28;19948;-64
2023/06/24 01:34:06;;;;;;;;;;;;;;;;;;5008421;28;19960;-64
2023/06/24 01:36:32;;;;;;;;;;;;;;;;;;5012464;28;20285;-64
2023/06/24 01:38:58;;;;;;;;;;;;;;;;;;5010972;28;19960;-64
2023/06/24 01:41:24;;;;;;;;;;;;;;;;;;5010180;28;19966;-64
2023/06/24 01:43:49;;;;;;;;;;;;;;;;;;5011044;28;19909;-65
2023/06/24 01:46:15;;;;;;;;;;;;;;;;;;5011356;28;19924;-64
2023/06/24 01:48:41;;;;;;;;;;;;;;;;;;5012534;28;19913;-64
2023/06/24 01:51:07;;;;;;;;;;;;;;;;;;5009406;28;20073;-64
2023/06/24 01:53:33;;;;;;;;;;;;;;;;;;5009890;28;19914;-64
2023/06/24 01:55:59;;;;;;;;;;;;;;;;;;5011570;28;19953;-64
2023/06/24 01:58:25;;;;;;;;;;;;;;;;;;5012483;28;19976;-64
2023/06/24 02:00:51;;;;;;;;;;;;;;;;;;5011975;28;19909;-64
2023/06/24 02:03:17;;;;;;;;;;;;;;;;;;5010104;28;20005;-64
2023/06/24 02:05:43;;;;;;;;;;;;;;;;;;5009565;28;20386;-64
2023/06/24 02:08:09;;;;;;;;;;;;;;;;;;5008686;28;19917;-64
2023/06/24 02:10:35;;;;;;;;;;;;;;;;;;5009678;28;20391;-64
2023/06/24 02:13:01;;;;;;;;;;;;;;;;;;5012258;28;19925;-64
2023/06/24 02:15:26;;;;;;;;;;;;;;;;;;5014966;28;19955;-64
2023/06/24 02:17:56;;;;;;;;;;;;;;;;;;5013742;28;19967;-64
2023/06/24 02:20:27;;;;;;;;;;;;;;;;;;5007677;28;19917;-64
2023/06/24 02:22:52;;;;;;;;;;;;;;;;;;5013675;28;19996;-65
2023/06/24 02:25:18;;;;;;;;;;;;;;;;;;5015832;28;20063;-64
2023/06/24 02:27:44;;;;;;;;;;;;;;;;;;5014252;28;19914;-64
2023/06/24 02:30:10;;;;;;;;;;;;;;;;;;5015076;28;20046;-64
2023/06/24 02:32:38;;;;;;;;;;;;;;;;;;5015078;28;19919;-64
2023/06/24 02:35:04;;;;;;;;;;;;;;;;;;5030315;28;20015;-64
2023/06/24 02:37:30;;;;;;;;;;;;;;;;;;5010001;28;20431;-64
2023/06/24 02:39:56;;;;;;;;;;;;;;;;;;5013369;28;19914;-64
2023/06/24 02:42:22;;;;;;;;;;;;;;;;;;5014404;28;20004;-64
2023/06/24 02:44:47;;;;;;;;;;;;;;;;;;5015192;28;19909;-64
2023/06/24 02:47:13;;;;;;;;;;;;;;;;;;5015258;28;19961;-64
2023/06/24 02:49:39;;;;;;;;;;;;;;;;;;5013939;28;19983;-64
2023/06/24 02:52:05;;;;;;;;;;;;;;;;;;5011169;28;19914;-64
2023/06/24 02:54:31;;;;;;;;;;;;;;;;;;5028720;28;19917;-64
2023/06/24 02:56:57;;;;;;;;;;;;;;;;;;5014837;28;20280;-64
2023/06/24 02:59:23;;;;;;;;;;;;;;;;;;5014389;28;19932;-64
2023/06/24 03:01:49;;;;;;;;;;;;;;;;;;5013578;28;20000;-64
2023/06/24 03:04:15;;;;;;;;;;;;;;;;;;4998154;28;20336;-65
2023/06/24 03:06:41;;;;;;;;;;;;;;;;;;5003768;28;19955;-64
2023/06/24 03:09:07;;;;;;;;;;;;;;;;;;5011860;28;20120;-64
2023/06/24 03:11:33;;;;;;;;;;;;;;;;;;5012471;28;20071;-64
2023/06/24 03:13:59;;;;;;;;;;;;;;;;;;5011022;28;20409;-64
2023/06/24 03:16:25;;;;;;;;;;;;;;;;;;5005295;28;19940;-64
2023/06/24 03:18:51;;;;;;;;;;;;;;;;;;5009816;28;20283;-64
2023/06/24 03:21:16;;;;;;;;;;;;;;;;;;5009024;28;19957;-64
2023/06/24 03:23:43;;;;;;;;;;;;;;;;;;5003957;28;19925;-64
2023/06/24 03:26:09;;;;;;;;;;;;;;;;;;5012447;28;20011;-65
2023/06/24 03:28:34;;;;;;;;;;;;;;;;;;5014050;28;20013;-64
2023/06/24 03:31:00;;;;;;;;;;;;;;;;;;5011229;28;19917;-64
2023/06/24 03:33:27;;;;;;;;;;;;;;;;;;5010544;28;20016;-64
2023/06/24 03:35:53;;;;;;;;;;;;;;;;;;4996279;28;19960;-64
2023/06/24 03:38:19;;;;;;;;;;;;;;;;;;5013279;28;19917;-65
2023/06/24 03:40:45;;;;;;;;;;;;;;;;;;5013704;28;19988;-64
2023/06/24 03:43:11;;;;;;;;;;;;;;;;;;5012935;28;19909;-64
2023/06/24 03:45:37;;;;;;;;;;;;;;;;;;5009435;28;20040;-64
2023/06/24 03:48:03;;;;;;;;;;;;;;;;;;5012927;28;19921;-64
2023/06/24 03:50:28;;;;;;;;;;;;;;;;;;5011911;28;20321;-64
2023/06/24 03:52:54;;;;;;;;;;;;;;;;;;5013894;28;20000;-64
2023/06/24 03:55:20;;;;;;;;;;;;;;;;;;5013870;28;19905;-64
2023/06/24 03:57:46;;;;;;;;;;;;;;;;;;5011585;28;20012;-64
2023/06/24 04:00:15;;;;;;;;;;;;;;;;;;5009836;28;19913;-64
2023/06/24 04:02:41;;;;;;;;;;;;;;;;;;5007568;28;19923;-64
2023/06/24 04:05:07;;;;;;;;;;;;;;;;;;5028058;28;19909;-64
2023/06/24 04:07:35;;;;;;;;;;;;;;;;;;5018446;28;20002;-64
2023/06/24 04:10:01;;;;;;;;;;;;;;;;;;5032456;28;19913;-64
2023/06/24 04:12:27;;;;;;;;;;;;;;;;;;5022409;28;20293;-64
2023/06/24 04:14:53;;;;;;;;;;;;;;;;;;5010334;28;20389;-64
2023/06/24 04:17:19;;;;;;;;;;;;;;;;;;5027030;28;19929;-64
2023/06/24 04:19:45;;;;;;;;;;;;;;;;;;5030994;28;19952;-64
2023/06/24 04:22:11;;;;;;;;;;;;;;;;;;5024407;28;19913;-64
2023/06/24 04:24:37;;;;;;;;;;;;;;;;;;5023556;28;19920;-64
2023/06/24 04:27:02;;;;;;;;;;;;;;;;;;5032575;28;20003;-64
2023/06/24 04:29:28;;;;;;;;;;;;;;;;;;5013035;28;20359;-64
2023/06/24 04:31:54;;;;;;;;;;;;;;;;;;5011998;28;20016;-64
2023/06/24 04:34:20;;;;;;;;;;;;;;;;;;5012754;28;19920;-64
2023/06/24 04:36:46;;;;;;;;;;;;;;;;;;4994602;28;19915;-64
2023/06/24 04:39:12;;;;;;;;;;;;;;;;;;5011175;28;19960;-64
2023/06/24 04:41:38;;;;;;;;;;;;;;;;;;5011580;28;20530;-64
2023/06/24 04:44:05;;;;;;;;;;;;;;;;;;5022484;28;19919;-64
2023/06/24 04:46:32;;;;;;;;;;;;;;;;;;5014774;28;19972;-64
2023/06/24 04:48:58;;;;;;;;;;;;;;;;;;5027245;28;20012;-64
2023/06/24 04:51:24;;;;;;;;;;;;;;;;;;5013014;28;20020;-64
2023/06/24 04:53:50;;;;;;;;;;;;;;;;;;5030089;28;20225;-64
2023/06/24 04:56:16;;;;;;;;;;;;;;;;;;5022844;28;19917;-64
2023/06/24 04:58:42;;;;;;;;;;;;;;;;;;5002296;28;19928;-65
2023/06/24 05:01:08;;;;;;;;;;;;;;;;;;5028300;28;20377;-65
2023/06/24 05:03:33;;;;;;;;;;;;;;;;;;5013923;28;19971;-64
2023/06/24 05:05:59;;;;;;;;;;;;;;;;;;5016842;28;20067;-64
2023/06/24 05:08:25;;;;;;;;;;;;;;;;;;5012377;28;20507;-65
2023/06/24 05:10:51;;;;;;;;;;;;;;;;;;5009926;28;20345;-65
2023/06/24 05:13:17;;;;;;;;;;;;;;;;;;5007770;28;20008;-65
2023/06/24 05:15:43;;;;;;;;;;;;;;;;;;5003746;28;19913;-65
2023/06/24 05:18:09;;;;;;;;;;;;;;;;;;5012173;28;19979;-64
2023/06/24 05:20:35;;;;;;;;;;;;;;;;;;5010800;28;19995;-64
2023/06/24 05:23:01;;;;;;;;;;;;;;;;;;5010643;28;20400;-64
2023/06/24 05:25:26;;;;;;;;;;;;;;;;;;5013856;28;19948;-65
2023/06/24 05:27:52;;;;;;;;;;;;;;;;;;5019687;28;20300;-64
2023/06/24 05:30:18;;;;;;;;;;;;;;;;;;5011533;28;20004;-65
2023/06/24 05:32:44;;;;;;;;;;;;;;;;;;5016573;28;19939;-65
2023/06/24 05:35:10;;;;;;;;;;;;;;;;;;5031238;28;20388;-65
2023/06/24 05:37:36;;;;;;;;;;;;;;;;;;5022038;28;19913;-65
2023/06/24 05:40:02;;;;;;;;;;;;;;;;;;5008560;28;20001;-66
2023/06/24 05:42:28;;;;;;;;;;;;;;;;;;5012012;28;19917;-65
2023/06/24 05:44:54;;;;;;;;;;;;;;;;;;5008800;28;20363;-65
2023/06/24 05:47:20;;;;;;;;;;;;;;;;;;5009130;28;20004;-65
2023/06/24 05:49:46;;;;;;;;;;;;;;;;;;5024215;28;19955;-65
2023/06/24 05:52:12;;;;;;;;;;;;;;;;;;5032440;28;19909;-65
2023/06/24 05:54:37;;;;;;;;;;;;;;;;;;5014018;28;19937;-65
2023/06/24 05:57:06;;;;;;;;;;;;;;;;;;5013941;28;19961;-65
2023/06/24 05:59:31;;;;;;;;;;;;;;;;;;5014314;28;19920;-65
2023/06/24 06:01:57;;;;;;;;;;;;;;;;;;5014622;28;19968;-65
2023/06/24 06:04:23;;;;;;;;;;;;;;;;;;5029082;28;19992;-65
2023/06/24 06:06:49;;;;;;;;;;;;;;;;;;5022120;28;20032;-64
2023/06/24 06:09:15;;;;;;;;;;;;;;;;;;5015049;28;19914;-64
2023/06/24 06:11:41;;;;;;;;;;;;;;;;;;5029847;28;20329;-65
2023/06/24 06:14:07;;;;;;;;;;;;;;;;;;5014283;28;19913;-65
2023/06/24 06:16:33;;;;;;;;;;;;;;;;;;5013617;28;19968;-65
2023/06/24 06:18:59;;;;;;;;;;;;;;;;;;5029574;28;19952;-65
2023/06/24 06:21:25;;;;;;;;;;;;;;;;;;5011314;28;20394;-64
2023/06/24 06:23:51;;;;;;;;;;;;;;;;;;5014312;28;19928;-64
2023/06/24 06:26:17;;;;;;;;;;;;;;;;;;5015187;28;20340;-65
2023/06/24 06:28:43;;;;;;;;;;;;;;;;;;5012217;28;19953;-64
2023/06/24 06:31:09;;;;;;;;;;;;;;;;;;5013104;28;19925;-65
2023/06/24 06:33:35;;;;;;;;;;;;;;;;;;5013735;28;19953;-64
2023/06/24 06:36:01;;;;;;;;;;;;;;;;;;5014295;28;19924;-64
2023/06/24 06:38:27;;;;;;;;;;;;;;;;;;5013167;28;19913;-63
2023/06/24 06:40:53;;;;;;;;;;;;;;;;;;4990122;28;19967;-64
2023/06/24 06:43:19;;;;;;;;;;;;;;;;;;5023126;28;20278;-64
2023/06/24 06:45:44;;;;;;;;;;;;;;;;;;5015550;28;19958;-63
2023/06/24 06:48:10;;;;;;;;;;;;;;;;;;5011655;28;19968;-64
2023/06/24 06:50:36;;;;;;;;;;;;;;;;;;5012216;28;19972;-63
2023/06/24 06:53:02;;;;;;;;;;;;;;;;;;5012913;28;20737;-63
2023/06/24 06:55:28;;;;;;;;;;;;;;;;;;5014566;28;19920;-61
2023/06/24 06:57:55;;;;;;;;;;;;;;;;;;5014368;28;19913;-64
2023/06/24 07:00:21;;;;;;;;;;;;;;;;;;5004733;28;20012;-63
2023/06/24 07:02:47;;;;;;;;;;;;;;;;;;5014668;28;19923;-63
2023/06/24 07:05:13;;;;;;;;;;;;;;;;;;5011489;28;20377;-63
2023/06/24 07:07:38;;;;;;;;;;;;;;;;;;5016365;28;19918;-64
2023/06/24 07:10:04;;;;;;;;;;;;;;;;;;5021763;28;20096;-63
2023/06/24 07:12:30;;;;;;;;;;;;;;;;;;5018220;28;19920;-63
2023/06/24 07:14:56;;;;;;;;;;;;;;;;;;5011288;28;19972;-63
2023/06/24 07:17:22;;;;;;;;;;;;;;;;;;5010571;28;19968;-63
2023/06/24 07:19:48;;;;;;;;;;;;;;;;;;5013263;28;20011;-64
2023/06/24 07:22:14;;;;;;;;;;;;;;;;;;5012355;28;19913;-63
2023/06/24 07:24:40;;;;;;;;;;;;;;;;;;5011034;28;19920;-63
2023/06/24 07:27:06;;;;;;;;;;;;;;;;;;5010961;28;19949;-63
2023/06/24 07:29:32;;;;;;;;;;;;;;;;;;5010853;28;19914;-64
2023/06/24 07:31:58;;;;;;;;;;;;;;;;;;5010047;28;19999;-62
2023/06/24 07:34:24;;;;;;;;;;;;;;;;;;5010396;28;20007;-64
2023/06/24 07:36:50;;;;;;;;;;;;;;;;;;5013298;28;20357;-64
2023/06/24 07:39:16;;;;;;;;;;;;;;;;;;5011874;28;19949;-63
2023/06/24 07:41:42;;;;;;;;;;;;;;;;;;5012968;28;20000;-63
2023/06/24 07:44:08;;;;;;;;;;;;;;;;;;5006778;28;19917;-63
2023/06/24 07:46:34;;;;;;;;;;;;;;;;;;5009903;28;20026;-63
2023/06/24 07:49:00;;;;;;;;;;;;;;;;;;5024161;28;19913;-64
2023/06/24 07:51:26;;;;;;;;;;;;;;;;;;5019624;28;19921;-64
2023/06/24 07:53:52;;;;;;;;;;;;;;;;;;5012543;28;19928;-63
2023/06/24 07:56:17;;;;;;;;;;;;;;;;;;5013261;28;19953;-63
2023/06/24 07:58:43;;;;;;;;;;;;;;;;;;5012065;28;20064;-63
2023/06/24 08:01:09;;;;;;;;;;;;;;;;;;5012125;28;20384;-63
2023/06/24 08:03:37;;;;;;;;;;;;;;;;;;5020086;28;20031;-63
2023/06/24 08:06:02;;;;;;;;;;;;;;;;;;5014925;28;20393;-63
2023/06/24 08:08:28;;;;;;;;;;;;;;;;;;5012198;28;20009;-63
2023/06/24 08:10:54;;;;;;;;;;;;;;;;;;5009697;28;19932;-63
2023/06/24 08:13:20;;;;;;;;;;;;;;;;;;5019440;28;20349;-63
2023/06/24 08:15:46;;;;;;;;;;;;;;;;;;5011028;28;20005;-63
2023/06/24 08:18:12;;;;;;;;;;;;;;;;;;5007357;28;20391;-63
2023/06/24 08:20:38;;;;;;;;;;;;;;;;;;5009332;28;19914;-63
2023/06/24 08:23:04;;;;;;;;;;;;;;;;;;5012832;28;19910;-63
2023/06/24 08:25:30;;;;;;;;;;;;;;;;;;5011063;28;20258;-63
2023/06/24 08:27:56;;;;;;;;;;;;;;;;;;5007055;28;20281;-63
2023/06/24 08:30:22;;;;;;;;;;;;;;;;;;5010277;28;19921;-63
2023/06/24 08:32:48;;;;;;;;;;;;;;;;;;5010056;28;20009;-63
2023/06/24 08:35:14;;;;;;;;;;;;;;;;;;4995032;28;20003;-63
2023/06/24 08:37:40;;;;;;;;;;;;;;;;;;5011875;28;20270;-64
2023/06/24 08:40:06;;;;;;;;;;;;;;;;;;5032610;28;19956;-64
2023/06/24 08:42:32;;;;;;;;;;;;;;;;;;5007453;28;19913;-63
2023/06/24 08:44:58;;;;;;;;;;;;;;;;;;5011126;28;20334;-64
2023/06/24 08:47:24;;;;;;;;;;;;;;;;;;5009395;28;20010;-63
2023/06/24 08:49:50;;;;;;;;;;;;;;;;;;5008863;28;20044;-63
2023/06/24 08:52:16;;;;;;;;;;;;;;;;;;5011607;28;19929;-63
2023/06/24 08:54:42;;;;;;;;;;;;;;;;;;5012084;28;19918;-63
2023/06/24 08:57:14;;;;;;;;;;;;;;;;;;5009182;28;19922;-63
2023/06/24 08:59:40;;;;;;;;;;;;;;;;;;5010218;28;19920;-62
2023/06/24 09:02:06;;;;;;;;;;;;;;;;;;5013670;28;19913;-62
2023/06/24 09:04:31;;;;;;;;;;;;;;;;;;5021568;28;20292;-62
2023/06/24 09:06:57;;;;;;;;;;;;;;;;;;5011442;28;19986;-62
2023/06/24 09:09:23;;;;;;;;;;;;;;;;;;5002263;28;19949;-62
2023/06/24 09:11:49;;;;;;;;;;;;;;;;;;5004508;28;19932;-62
2023/06/24 09:14:15;;;;;;;;;;;;;;;;;;5007712;28;19913;-62
2023/06/24 09:16:41;;;;;;;;;;;;;;;;;;5009755;28;20017;-62
2023/06/24 09:19:07;;;;;;;;;;;;;;;;;;5009535;28;20374;-62
2023/06/24 09:21:34;;;;;;;;;;;;;;;;;;5009208;28;20385;-62
2023/06/24 09:24:00;;;;;;;;;;;;;;;;;;5025038;28;19961;-62
2023/06/24 09:26:26;;;;;;;;;;;;;;;;;;5010641;28;20017;-62
2023/06/24 09:28:52;;;;;;;;;;;;;;;;;;5019285;28;19921;-63
2023/06/24 09:31:18;;;;;;;;;;;;;;;;;;5007218;28;19995;-62
2023/06/24 09:33:44;;;;;;;;;;;;;;;;;;5008107;28;20010;-63
2023/06/24 09:36:10;;;;;;;;;;;;;;;;;;5008481;28;20274;-62
2023/06/24 09:38:36;;;;;;;;;;;;;;;;;;5010397;28;19960;-62
2023/06/24 09:41:02;;;;;;;;;;;;;;;;;;5010515;28;20308;-62
2023/06/24 09:43:28;;;;;;;;;;;;;;;;;;5011650;28;19913;-62
2023/06/24 09:45:54;;;;;;;;;;;;;;;;;;5010074;28;19987;-62
2023/06/24 09:48:20;;;;;;;;;;;;;;;;;;5006005;28;19949;-62
2023/06/24 09:50:46;;;;;;;;;;;;;;;;;;5008946;28;20375;-63
2023/06/24 09:53:12;;;;;;;;;;;;;;;;;;5006564;28;19961;-63
2023/06/24 09:55:43;;;;;;;;;;;;;;;;;;5010597;28;20008;-62
2023/06/24 09:58:09;;;;;;;;;;;;;;;;;;5011638;28;20000;-62
2023/06/24 10:00:35;;;;;;;;;;;;;;;;;;5004220;28;21243;-62
2023/06/24 10:03:01;;;;;;;;;;;;;;;;;;5011803;28;19913;-62
2023/06/24 10:05:27;;;;;;;;;;;;;;;;;;5017082;28;19913;-62
2023/06/24 10:07:52;;;;;;;;;;;;;;;;;;5010926;28;19972;-63
2023/06/24 10:10:18;;;;;;;;;;;;;;;;;;5010468;28;19972;-63
2023/06/24 10:12:44;;;;;;;;;;;;;;;;;;5009272;28;20436;-62
2023/06/24 10:15:11;;;;;;;;;;;;;;;;;;5004959;28;19932;-63
2023/06/24 10:17:37;;;;;;;;;;;;;;;;;;5003410;28;19940;-64
2023/06/24 10:20:03;;;;;;;;;;;;;;;;;;5006856;28;20338;-63
2023/06/24 10:22:29;;;;;;;;;;;;;;;;;;5006796;28;19921;-63
2023/06/24 10:24:56;;;;;;;;;;;;;;;;;;5011040;28;19944;-63
2023/06/24 10:27:22;;;;;;;;;;;;;;;;;;5022414;28;19921;-63
2023/06/24 10:29:48;;;;;;;;;;;;;;;;;;5022201;28;19932;-63
2023/06/24 10:32:14;;;;;;;;;;;;;;;;;;5014326;28;20335;-63
2023/06/24 10:34:41;;;;;;;;;;;;;;;;;;5007995;28;20016;-64
2023/06/24 10:37:07;;;;;;;;;;;;;;;;;;5011212;28;20001;-63
2023/06/24 10:39:33;;;;;;;;;;;;;;;;;;5001116;28;20006;-63
2023/06/24 10:41:59;;;;;;;;;;;;;;;;;;5039107;28;20365;-63
2023/06/24 10:44:24;;;;;;;;;;;;;;;;;;5022948;28;20016;-63
2023/06/24 10:46:50;;;;;;;;;;;;;;;;;;5009912;28;20346;-63
2023/06/24 10:49:16;;;;;;;;;;;;;;;;;;5015238;28;19960;-63
2023/06/24 10:51:42;;;;;;;;;;;;;;;;;;5017998;28;19917;-61
2023/06/24 10:54:08;;;;;;;;;;;;;;;;;;4999529;28;20435;-64
2023/06/24 10:56:34;;;;;;;;;;;;;;;;;;5014240;28;19956;-61
2023/06/24 10:59:00;;;;;;;;;;;;;;;;;;5015773;28;19916;-62
2023/06/24 11:01:26;;;;;;;;;;;;;;;;;;5007006;28;19917;-62
2023/06/24 11:03:52;;;;;;;;;;;;;;;;;;4990461;28;19928;-64
2023/06/24 11:06:17;;;;;;;;;;;;;;;;;;4998630;28;20406;-61
2023/06/24 11:08:43;;;;;;;;;;;;;;;;;;5015116;28;19914;-61
2023/06/24 11:11:09;;;;;;;;;;;;;;;;;;5023702;28;20349;-61
2023/06/24 11:13:35;;;;;;;;;;;;;;;;;;5012602;28;22150;-64
2023/06/24 11:16:01;;;;;;;;;;;;;;;;;;5006255;28;19917;-64
2023/06/24 11:18:27;;;;;;;;;;;;;;;;;;5012054;28;20286;-64
2023/06/24 11:20:53;;;;;;;;;;;;;;;;;;5015899;28;20007;-63
2023/06/24 11:23:19;;;;;;;;;;;;;;;;;;5017171;28;19918;-61
2023/06/24 11:25:45;;;;;;;;;;;;;;;;;;5018308;28;19919;-63
2023/06/24 11:28:10;;;;;;;;;;;;;;;;;;5017484;28;19968;-64
2023/06/24 11:30:36;;;;;;;;;;;;;;;;;;5014260;28;20008;-64
2023/06/24 11:33:02;;;;;;;;;;;;;;;;;;5010192;28;20447;-63
2023/06/24 11:35:29;;;;;;;;;;;;;;;;;;5028545;28;19909;-63
2023/06/24 11:37:55;;;;;;;;;;;;;;;;;;5008836;28;20337;-63
2023/06/24 11:40:21;;;;;;;;;;;;;;;;;;5024227;28;19914;-63
2023/06/24 11:42:48;;;;;;;;;;;;;;;;;;5011077;28;19969;-63
2023/06/24 11:45:17;;;;;;;;;;;;;;;;;;5009438;28;19920;-63
2023/06/24 11:47:42;;;;;;;;;;;;;;;;;;4997584;28;19918;-64
2023/06/24 11:50:09;;;;;;;;;;;;;;;;;;5008267;28;19922;-64
2023/06/24 11:52:35;;;;;;;;;;;;;;;;;;5015690;28;20015;-64
2023/06/24 11:55:01;;;;;;;;;;;;;;;;;;5010498;28;20016;-64
2023/06/24 11:57:26;;;;;;;;;;;;;;;;;;5012031;28;20361;-64
2023/06/24 11:59:52;;;;;;;;;;;;;;;;;;5014999;28;19991;-64
2023/06/24 12:02:18;;;;;;;;;;;;;;;;;;5012468;28;19909;-65
2023/06/24 12:04:44;;;;;;;;;;;;;;;;;;5010927;28;19920;-63
2023/06/24 12:07:10;;;;;;;;;;;;;;;;;;5012578;28;20388;-63
2023/06/24 12:09:36;;;;;;;;;;;;;;;;;;5025899;28;19983;-64
2023/06/24 12:12:02;;;;;;;;;;;;;;;;;;5020863;28;20003;-64
2023/06/24 12:14:28;;;;;;;;;;;;;;;;;;5011565;28;19913;-64
2023/06/24 12:16:54;;;;;;;;;;;;;;;;;;5009210;28;20067;-63
2023/06/24 12:19:21;;;;;;;;;;;;;;;;;;5008562;28;19933;-63
2023/06/24 12:21:47;;;;;;;;;;;;;;;;;;5008176;28;19948;-64
2023/06/24 12:24:13;;;;;;;;;;;;;;;;;;5009432;28;19976;-63
2023/06/24 12:26:39;;;;;;;;;;;;;;;;;;5010343;28;19924;-64
2023/06/24 12:29:05;;;;;;;;;;;;;;;;;;5009405;28;20500;-64
2023/06/24 12:31:31;;;;;;;;;;;;;;;;;;5012534;28;20019;-64
2023/06/24 12:33:57;;;;;;;;;;;;;;;;;;5007880;28;20648;-64
2023/06/24 12:36:23;;;;;;;;;;;;;;;;;;5010615;28;19956;-62
2023/06/24 12:38:49;;;;;;;;;;;;;;;;;;5021102;28;19927;-63
2023/06/24 12:41:15;;;;;;;;;;;;;;;;;;5016713;28;20317;-64
2023/06/24 12:43:41;;;;;;;;;;;;;;;;;;5031289;28;19917;-62
2023/06/24 12:46:06;;;;;;;;;;;;;;;;;;5027962;28;20008;-64
2023/06/24 12:48:32;;;;;;;;;;;;;;;;;;5013345;28;20010;-62
2023/06/24 12:50:58;;;;;;;;;;;;;;;;;;5018639;28;19931;-62
2023/06/24 12:53:24;;;;;;;;;;;;;;;;;;5013147;28;19992;-62
2023/06/24 12:55:50;;;;;;;;;;;;;;;;;;5012343;28;19977;-62
2023/06/24 12:58:16;;;;;;;;;;;;;;;;;;5026869;28;19963;-62
2023/06/24 13:00:42;;;;;;;;;;;;;;;;;;5011602;28;19996;-62
2023/06/24 13:03:08;;;;;;;;;;;;;;;;;;4994085;28;19913;-62
2023/06/24 13:05:34;;;;;;;;;;;;;;;;;;5011510;28;19960;-61
2023/06/24 13:08:00;;;;;;;;;;;;;;;;;;5007475;28;19952;-62
2023/06/24 13:10:26;;;;;;;;;;;;;;;;;;5007776;28;19987;-62
2023/06/24 13:12:52;;;;;;;;;;;;;;;;;;5007905;28;19993;-62
2023/06/24 13:15:18;;;;;;;;;;;;;;;;;;5010679;28;19921;-62
2023/06/24 13:17:44;;;;;;;;;;;;;;;;;;4990072;28;19922;-61
2023/06/24 13:20:10;;;;;;;;;;;;;;;;;;4990286;28;19949;-62
2023/06/24 13:22:36;;;;;;;;;;;;;;;;;;4985938;28;19914;-62
2023/06/24 13:25:02;;;;;;;;;;;;;;;;;;4991982;28;20113;-62
2023/06/24 13:27:27;;;;;;;;;;;;;;;;;;4992458;28;19913;-60
2023/06/24 13:29:53;;;;;;;;;;;;;;;;;;4991468;28;19910;-62
2023/06/24 13:32:19;;;;;;;;;;;;;;;;;;4992250;28;20449;-62
2023/06/24 13:34:45;;;;;;;;;;;;;;;;;;4992244;28;19933;-62
2023/06/24 13:37:11;;;;;;;;;;;;;;;;;;4989385;28;19996;-61
2023/06/24 13:39:37;;;;;;;;;;;;;;;;;;4992221;28;19979;-62
2023/06/24 13:42:03;;;;;;;;;;;;;;;;;;4992057;28;19956;-62
2023/06/24 13:44:29;;;;;;;;;;;;;;;;;;4993628;28;20001;-61
2023/06/24 13:46:55;;;;;;;;;;;;;;;;;;4991989;28;20362;-62
2023/06/24 13:49:21;;;;;;;;;;;;;;;;;;4996843;28;19922;-62
2023/06/24 13:51:47;;;;;;;;;;;;;;;;;;5010412;28;19919;-62
2023/06/24 13:54:12;;;;;;;;;;;;;;;;;;5011254;28;20292;-61
2023/06/24 13:56:38;;;;;;;;;;;;;;;;;;5011440;28;19914;-62
2023/06/24 13:59:04;;;;;;;;;;;;;;;;;;4996469;28;19922;-61
2023/06/24 14:01:31;;;;;;;;;;;;;;;;;;5003436;28;19961;-62
2023/06/24 14:03:57;;;;;;;;;;;;;;;;;;4988717;28;20255;-62
2023/06/24 14:06:23;;;;;;;;;;;;;;;;;;5001402;28;19989;-62
2023/06/24 14:08:48;;;;;;;;;;;;;;;;;;5002645;28;19957;-62
2023/06/24 14:11:14;;;;;;;;;;;;;;;;;;5011125;28;19913;-63
2023/06/24 14:13:40;;;;;;;;;;;;;;;;;;5014241;28;20520;-62
2023/06/24 14:16:06;;;;;;;;;;;;;;;;;;5005521;28;20001;-62
2023/06/24 14:18:32;;;;;;;;;;;;;;;;;;5031648;28;19910;-62
2023/06/24 14:20:58;;;;;;;;;;;;;;;;;;5026022;28;20036;-62
2023/06/24 14:23:27;;;;;;;;;;;;;;;;;;5019046;28;19916;-61
2023/06/24 14:25:53;;;;;;;;;;;;;;;;;;5034775;28;19913;-62
2023/06/24 14:28:19;;;;;;;;;;;;;;;;;;5000824;28;19960;-62
2023/06/24 14:30:45;;;;;;;;;;;;;;;;;;5028749;28;20380;-62
2023/06/24 14:33:11;;;;;;;;;;;;;;;;;;5014131;28;19921;-62
2023/06/24 14:35:37;;;;;;;;;;;;;;;;;;5048480;28;20369;-62
2023/06/24 14:38:03;;;;;;;;;;;;;;;;;;5025473;28;20020;-62
2023/06/24 14:40:29;;;;;;;;;;;;;;;;;;5021097;28;20281;-62
2023/06/24 14:42:55;;;;;;;;;;;;;;;;;;5016737;28;19935;-62
2023/06/24 14:45:21;;;;;;;;;;;;;;;;;;5014773;28;19909;-62
2023/06/24 14:47:46;;;;;;;;;;;;;;;;;;5014834;28;20377;-62
2023/06/24 14:50:12;;;;;;;;;;;;;;;;;;5024648;28;19932;-62
2023/06/24 14:52:38;;;;;;;;;;;;;;;;;;5034103;28;20345;-62
2023/06/24 14:55:04;;;;;;;;;;;;;;;;;;5034587;28;19913;-61
2023/06/24 14:57:30;;;;;;;;;;;;;;;;;;5024349;28;20011;-61
2023/06/24 14:59:56;;;;;;;;;;;;;;;;;;5028930;28;20428;-61
2023/06/24 15:02:22;;;;;;;;;;;;;;;;;;5008682;28;19959;-61
2023/06/24 15:04:48;;;;;;;;;;;;;;;;;;5006202;28;20020;-61
2023/06/24 15:07:14;;;;;;;;;;;;;;;;;;5013911;28;19917;-61
2023/06/24 15:09:40;;;;;;;;;;;;;;;;;;5014380;28;19920;-61
2023/06/24 15:12:06;;;;;;;;;;;;;;;;;;5014064;28;20032;-61
2023/06/24 15:14:32;;;;;;;;;;;;;;;;;;5012613;28;19944;-61
2023/06/24 15:16:58;;;;;;;;;;;;;;;;;;5013675;28;19961;-60
2023/06/24 15:19:26;;;;;;;;;;;;;;;;;;5013769;28;21300;-61
2023/06/24 15:21:52;;;;;;;;;;;;;;;;;;5011467;28;20019;-61
2023/06/24 15:24:18;;;;;;;;;;;;;;;;;;5014276;28;19956;-61
2023/06/24 15:26:43;;;;;;;;;;;;;;;;;;4996374;28;20290;-60
2023/06/24 15:29:09;;;;;;;;;;;;;;;;;;5014179;28;19952;-60
2023/06/24 15:31:35;;;;;;;;;;;;;;;;;;5010521;28;19941;-61
2023/06/24 15:34:01;;;;;;;;;;;;;;;;;;5012593;28;19918;-61
2023/06/24 15:36:29;;;;;;;;;;;;;;;;;;5010477;28;19994;-61
2023/06/24 15:38:54;;;;;;;;;;;;;;;;;;5013853;28;19913;-61
2023/06/24 15:41:20;;;;;;;;;;;;;;;;;;5012156;28;19935;-62
2023/06/24 15:43:46;;;;;;;;;;;;;;;;;;5010552;28;20392;-63
2023/06/24 15:46:12;;;;;;;;;;;;;;;;;;5010535;28;19996;-65
2023/06/24 15:48:38;;;;;;;;;;;;;;;;;;5013456;28;20324;-64
2023/06/24 15:51:04;;;;;;;;;;;;;;;;;;5000612;28;19979;-65
2023/06/24 15:53:30;;;;;;;;;;;;;;;;;;5016051;28;19929;-65
2023/06/24 15:55:56;;;;;;;;;;;;;;;;;;5017265;28;19929;-65
2023/06/24 15:58:22;;;;;;;;;;;;;;;;;;5004508;28;20417;-64
2023/06/24 16:00:48;;;;;;;;;;;;;;;;;;5004590;28;19952;-65
2023/06/24 16:03:13;;;;;;;;;;;;;;;;;;4998756;28;20554;-66
2023/06/24 16:05:39;;;;;;;;;;;;;;;;;;5026782;28;19923;-66
2023/06/24 16:08:05;;;;;;;;;;;;;;;;;;5030458;28;19909;-67
2023/06/24 16:10:31;;;;;;;;;;;;;;;;;;5008583;28;19956;-65
2023/06/24 16:12:57;;;;;;;;;;;;;;;;;;4994292;28;19966;-66
2023/06/24 16:15:23;;;;;;;;;;;;;;;;;;5007074;28;20342;-65
2023/06/24 16:17:49;;;;;;;;;;;;;;;;;;5006564;28;20061;-65
2023/06/24 16:20:16;;;;;;;;;;;;;;;;;;5010649;28;20288;-65
2023/06/24 16:22:42;;;;;;;;;;;;;;;;;;5007441;28;19920;-65
2023/06/24 16:25:08;;;;;;;;;;;;;;;;;;5011397;28;20301;-67
2023/06/24 16:27:34;;;;;;;;;;;;;;;;;;5011241;28;19921;-67
2023/06/24 16:30:00;;;;;;;;;;;;;;;;;;5012315;28;19960;-66
2023/06/24 16:32:26;;;;;;;;;;;;;;;;;;5012165;28;19992;-67
2023/06/24 16:34:52;;;;;;;;;;;;;;;;;;5006702;28;20026;-67
2023/06/24 16:37:18;;;;;;;;;;;;;;;;;;5007610;28;19920;-67